Time;durP1;ratioP1;P1;durP2;ratioP2;P2;SDS_P1;SDS_P2;PMS_P1;PMS_P2;Temp;Humidity;BMP_temperature;BMP_pressure;BME280_temperature;BME280_humidity;BME280_pressure;Samples;Min_cycle;Max_cycle;Signal;HPM_P1;HPM_P2
2022/07/09 00:01:58;;;;;;;8.52;3.90;;;18.60;68.20;;;;;;4994569;28;20029;-80
2022/07/09 00:04:23;;;;;;;3.55;2.70;;;18.50;67.50;;;;;;5024480;28;20032;-80
2022/07/09 00:06:49;;;;;;;4.50;2.88;;;18.40;68.90;;;;;;5005107;28;20033;-80
2022/07/09 00:09:15;;;;;;;5.70;2.70;;;18.40;69.40;;;;;;5027182;28;20473;-79
2022/07/09 00:11:40;;;;;;;3.83;2.58;;;18.40;69.10;;;;;;5021207;28;20037;-80
2022/07/09 00:14:06;;;;;;;3.45;2.03;;;18.50;69.70;;;;;;5016762;28;20022;-79
2022/07/09 00:16:31;;;;;;;3.78;2.42;;;18.50;70.10;;;;;;5023004;28;20546;-79
2022/07/09 00:18:57;;;;;;;6.45;2.38;;;18.50;71.00;;;;;;5006117;28;20061;-79
2022/07/09 00:21:22;;;;;;;2.85;2.55;;;18.30;70.10;;;;;;5004614;28;20405;-79
2022/07/09 00:23:48;;;;;;;3.13;1.90;;;18.20;69.80;;;;;;4996697;28;20408;-80
2022/07/09 00:26:14;;;;;;;3.25;2.20;;;18.10;68.90;;;;;;5005913;28;20163;-80
2022/07/09 00:28:39;;;;;;;3.83;2.50;;;18.10;69.80;;;;;;4999477;28;20037;-79
2022/07/09 00:31:05;;;;;;;2.50;2.10;;;18.10;70.30;;;;;;4996293;28;20029;-79
2022/07/09 00:33:30;;;;;;;4.57;2.45;;;18.00;70.80;;;;;;5018307;28;20041;-79
2022/07/09 00:35:56;;;;;;;5.45;2.22;;;17.90;72.30;;;;;;5007470;28;20021;-79
2022/07/09 00:38:22;;;;;;;4.00;2.30;;;18.00;72.70;;;;;;5008453;28;20118;-79
2022/07/09 00:40:50;;;;;;;4.30;2.42;;;17.90;75.50;;;;;;5007590;28;20036;-79
2022/07/09 00:43:17;;;;;;;4.20;3.33;;;17.90;73.90;;;;;;5010210;28;20040;-79
2022/07/09 00:45:43;;;;;;;3.78;2.53;;;17.80;72.70;;;;;;5009681;28;20416;-79
2022/07/09 00:48:08;;;;;;;6.03;3.03;;;17.70;70.10;;;;;;5020847;28;20143;-79
2022/07/09 00:50:34;;;;;;;3.35;2.67;;;17.50;74.70;;;;;;5006312;28;20039;-79
2022/07/09 00:52:59;;;;;;;4.03;2.75;;;17.60;71.80;;;;;;5024917;28;20086;-76
2022/07/09 00:55:25;;;;;;;6.03;3.22;;;17.50;72.00;;;;;;5005789;28;20040;-76
2022/07/09 00:57:51;;;;;;;5.18;2.38;;;17.30;69.70;;;;;;4997497;28;20037;-76
2022/07/09 01:00:18;;;;;;;3.05;1.75;;;17.30;71.40;;;;;;5003326;28;20052;-76
2022/07/09 01:02:44;;;;;;;2.95;2.67;;;;;;;;;;4990237;28;20033;-76
2022/07/09 01:05:09;;;;;;;4.93;2.85;;;17.20;70.80;;;;;;5020235;28;20037;-75
2022/07/09 01:07:35;;;;;;;3.17;2.15;;;17.40;72.90;;;;;;5010303;28;20056;-75
2022/07/09 01:10:01;;;;;;;5.25;3.45;;;17.20;72.10;;;;;;5006442;28;20054;-76
2022/07/09 01:12:26;;;;;;;2.60;2.17;;;17.10;71.90;;;;;;5004171;28;20025;-76
2022/07/09 01:14:52;;;;;;;3.10;1.90;;;17.20;73.20;;;;;;4995241;28;20760;-74
2022/07/09 01:17:17;;;;;;;7.10;2.90;;;17.10;74.70;;;;;;5038052;28;20033;-75
2022/07/09 01:19:43;;;;;;;4.60;2.13;;;17.30;74.90;;;;;;4994823;28;20028;-75
2022/07/09 01:22:09;;;;;;;2.47;1.75;;;17.30;74.90;;;;;;5008302;28;20033;-75
2022/07/09 01:24:34;;;;;;;2.75;2.35;;;17.50;75.60;;;;;;5019186;28;20117;-75
2022/07/09 01:27:00;;;;;;;4.30;2.55;;;17.20;74.10;;;;;;4993882;28;20030;-76
2022/07/09 01:29:25;;;;;;;4.35;2.47;;;17.10;74.20;;;;;;5025121;28;20025;-76
2022/07/09 01:31:51;;;;;;;5.80;2.70;;;17.00;74.00;;;;;;4995274;28;20033;-76
2022/07/09 01:34:16;;;;;;;2.47;2.22;;;16.90;74.30;;;;;;5011203;28;20029;-76
2022/07/09 01:36:42;;;;;;;2.75;2.15;;;17.00;76.20;;;;;;4994700;28;20500;-76
2022/07/09 01:39:08;;;;;;;4.15;2.58;;;16.90;75.20;;;;;;5005741;28;20032;-75
2022/07/09 01:41:33;;;;;;;3.92;2.83;;;16.80;75.40;;;;;;5038208;28;20033;-76
2022/07/09 01:43:59;;;;;;;4.50;2.42;;;16.70;77.00;;;;;;4989114;28;20032;-74
2022/07/09 01:46:24;;;;;;;3.45;3.08;;;16.80;80.50;;;;;;5004166;28;20450;-75
2022/07/09 01:48:50;;;;;;;3.42;2.45;;;16.80;79.80;;;;;;5024792;28;20029;-77
2022/07/09 01:51:15;;;;;;;2.35;2.10;;;16.90;75.30;;;;;;5026439;28;20507;-76
2022/07/09 01:53:41;;;;;;;3.03;2.45;;;16.60;75.10;;;;;;5026610;28;20164;-75
2022/07/09 01:56:07;;;;;;;2.75;2.00;;;16.70;78.20;;;;;;5012513;28;20032;-75
2022/07/09 01:58:33;;;;;;;4.00;2.47;;;16.80;76.50;;;;;;5010905;28;20037;-75
2022/07/09 02:00:59;;;;;;;5.45;3.33;;;16.80;76.20;;;;;;4995742;28;20035;-75
2022/07/09 02:03:25;;;;;;;6.53;3.03;;;16.70;76.60;;;;;;5008563;28;20037;-76
2022/07/09 02:05:50;;;;;;;3.70;3.05;;;16.70;78.00;;;;;;4998581;28;20563;-76
2022/07/09 02:08:16;;;;;;;5.80;3.40;;;16.70;78.10;;;;;;5023462;28;20383;-76
2022/07/09 02:10:41;;;;;;;3.55;2.40;;;16.60;77.20;;;;;;5012257;28;20056;-75
2022/07/09 02:13:07;;;;;;;6.85;3.60;;;16.60;78.10;;;;;;4999346;28;20033;-75
2022/07/09 02:15:33;;;;;;;6.30;3.75;;;17.20;78.50;;;;;;5014499;28;20087;-76
2022/07/09 02:17:59;;;;;;;3.60;2.40;;;16.60;77.60;;;;;;4994054;28;20049;-75
2022/07/09 02:20:24;;;;;;;6.38;3.90;;;16.50;76.80;;;;;;5006932;28;20829;-76
2022/07/09 02:22:50;;;;;;;4.80;3.28;;;16.50;76.10;;;;;;4995003;28;20040;-75
2022/07/09 02:25:16;;;;;;;5.72;2.67;;;16.50;77.70;;;;;;4989940;28;20029;-75
2022/07/09 02:27:41;;;;;;;6.28;3.63;;;16.50;76.90;;;;;;5014191;28;20033;-75
2022/07/09 02:30:07;;;;;;;5.38;3.08;;;16.50;76.30;;;;;;5004171;28;20124;-76
2022/07/09 02:32:33;;;;;;;3.67;2.70;;;16.50;77.40;;;;;;5024109;28;20064;-75
2022/07/09 02:34:58;;;;;;;3.83;2.53;;;16.60;77.20;;;;;;5023014;28;20055;-75
2022/07/09 02:37:24;;;;;;;6.78;4.13;;;16.70;78.50;;;;;;5012407;28;20083;-75
2022/07/09 02:39:50;;;;;;;4.53;2.47;;;16.60;77.80;;;;;;5029951;28;20039;-75
2022/07/09 02:42:15;;;;;;;3.70;2.80;;;16.60;77.00;;;;;;5011430;28;20083;-75
2022/07/09 02:44:43;;;;;;;4.50;3.08;;;16.60;77.60;;;;;;5042400;28;20033;-76
2022/07/09 02:47:09;;;;;;;4.50;3.72;;;16.60;78.20;;;;;;5025738;28;20041;-74
2022/07/09 02:49:36;;;;;;;3.20;2.33;;;16.70;77.80;;;;;;5012015;28;20088;-75
2022/07/09 02:52:01;;;;;;;6.78;3.85;;;16.50;77.30;;;;;;5026048;28;20527;-78
2022/07/09 02:54:28;;;;;;;7.03;3.50;;;16.50;76.50;;;;;;5043925;28;20396;-78
2022/07/09 02:56:53;;;;;;;3.97;2.55;;;16.60;77.30;;;;;;5026329;28;20156;-77
2022/07/09 02:59:19;;;;;;;2.53;2.20;;;16.60;78.30;;;;;;5012973;28;20116;-74
2022/07/09 03:01:45;;;;;;;3.47;3.10;;;16.70;78.50;;;;;;5011926;28;20051;-75
2022/07/09 03:04:10;;;;;;;5.68;3.58;;;16.80;79.30;;;;;;5008546;28;20047;-75
2022/07/09 03:06:36;;;;;;;7.35;4.13;;;17.20;82.00;;;;;;5025272;28;20060;-75
2022/07/09 03:09:02;;;;;;;4.68;2.58;;;16.40;81.00;;;;;;4996766;28;20381;-75
2022/07/09 03:11:27;;;;;;;7.28;4.13;;;16.40;78.70;;;;;;5023104;28;20041;-75
2022/07/09 03:13:53;;;;;;;4.65;2.63;;;16.60;78.20;;;;;;5011878;28;20033;-76
2022/07/09 03:16:18;;;;;;;3.75;2.97;;;16.60;78.60;;;;;;5022984;28;20053;-75
2022/07/09 03:18:44;;;;;;;4.32;3.30;;;16.60;78.90;;;;;;5011252;28;20124;-76
2022/07/09 03:21:11;;;;;;;9.48;3.60;;;16.60;78.40;;;;;;5008305;28;20516;-75
2022/07/09 03:23:37;;;;;;;3.85;3.42;;;16.70;80.00;;;;;;5011351;28;20374;-75
2022/07/09 03:26:04;;;;;;;8.15;4.35;;;16.60;80.20;;;;;;4992810;28;20034;-75
2022/07/09 03:28:29;;;;;;;5.47;4.60;;;16.60;78.30;;;;;;5006571;28;20421;-75
2022/07/09 03:30:55;;;;;;;3.90;2.58;;;16.50;77.50;;;;;;4996609;28;20174;-75
2022/07/09 03:33:21;;;;;;;4.88;3.20;;;16.60;77.70;;;;;;5020263;28;20033;-75
2022/07/09 03:35:46;;;;;;;3.15;2.33;;;16.50;77.40;;;;;;5004777;28;20056;-75
2022/07/09 03:38:12;;;;;;;6.32;4.35;;;16.60;77.80;;;;;;5006519;28;20040;-75
2022/07/09 03:40:37;;;;;;;6.47;2.90;;;16.60;78.00;;;;;;5020610;28;20686;-74
2022/07/09 03:43:03;;;;;;;3.67;2.85;;;16.60;77.30;;;;;;5004599;28;20497;-75
2022/07/09 03:45:29;;;;;;;3.10;2.55;;;16.70;78.50;;;;;;5006953;28;20037;-75
2022/07/09 03:47:54;;;;;;;4.32;2.88;;;16.70;79.10;;;;;;5006864;28;20036;-75
2022/07/09 03:50:20;;;;;;;3.33;2.50;;;16.80;81.30;;;;;;5026551;28;20036;-75
2022/07/09 03:52:46;;;;;;;8.57;3.88;;;17.10;80.00;;;;;;5006361;28;20086;-75
2022/07/09 03:55:11;;;;;;;6.10;3.28;;;16.90;80.00;;;;;;5007140;28;20052;-75
2022/07/09 03:57:37;;;;;;;7.28;3.40;;;16.70;78.80;;;;;;5025970;28;20044;-75
2022/07/09 04:00:06;;;;;;;4.85;2.70;;;16.60;78.50;;;;;;5011682;28;20083;-75
2022/07/09 04:02:32;;;;;;;4.65;3.17;;;16.80;80.80;;;;;;5002628;28;20025;-75
2022/07/09 04:04:58;;;;;;;4.65;3.90;;;16.80;79.90;;;;;;4993308;28;20103;-75
2022/07/09 04:07:26;;;;;;;6.60;2.80;;;16.70;78.40;;;;;;5011661;28;20021;-75
2022/07/09 04:09:53;;;;;;;6.80;3.75;;;16.90;79.90;;;;;;5010718;28;20033;-75
2022/07/09 04:12:18;;;;;;;6.18;2.90;;;17.00;79.30;;;;;;5023197;28;20034;-76
2022/07/09 04:14:44;;;;;;;3.63;2.50;;;16.90;82.40;;;;;;5012810;28;20091;-74
2022/07/09 04:17:09;;;;;;;4.72;2.92;;;16.90;81.30;;;;;;5007406;28;20040;-75
2022/07/09 04:19:35;;;;;;;3.05;2.35;;;16.90;80.30;;;;;;5024850;28;20044;-75
2022/07/09 04:22:02;;;;;;;3.55;3.25;;;17.00;81.40;;;;;;4994791;28;20059;-75
2022/07/09 04:24:27;;;;;;;7.93;3.90;;;17.00;83.20;;;;;;5008924;28;20120;-75
2022/07/09 04:26:53;;;;;;;6.57;3.67;;;17.10;83.10;;;;;;5008013;28;20108;-75
2022/07/09 04:29:19;;;;;;;5.93;3.38;;;17.10;81.70;;;;;;5021826;28;20033;-75
2022/07/09 04:31:44;;;;;;;9.68;3.85;;;17.00;81.80;;;;;;5010213;28;20120;-75
2022/07/09 04:34:10;;;;;;;5.72;4.03;;;17.00;81.40;;;;;;5011555;28;20044;-75
2022/07/09 04:36:35;;;;;;;6.45;4.68;;;17.00;80.40;;;;;;5023700;28;20041;-75
2022/07/09 04:39:01;;;;;;;4.10;2.28;;;17.00;81.70;;;;;;5037780;28;20035;-75
2022/07/09 04:41:28;;;;;;;3.13;1.90;;;17.20;82.80;;;;;;5021740;28;20415;-74
2022/07/09 04:43:53;;;;;;;3.35;2.67;;;17.20;83.60;;;;;;5010169;28;20037;-75
2022/07/09 04:46:21;;;;;;;9.13;4.72;;;17.30;85.30;;;;;;5002774;28;20045;-75
2022/07/09 04:48:46;;;;;;;3.00;2.65;;;17.20;83.40;;;;;;5004899;28;20476;-75
2022/07/09 04:51:12;;;;;;;7.68;4.63;;;17.20;84.80;;;;;;5019127;28;20128;-75
2022/07/09 04:53:37;;;;;;;9.55;5.03;;;17.30;85.00;;;;;;4992064;28;20037;-76
2022/07/09 04:56:03;;;;;;;3.05;2.70;;;17.20;83.20;;;;;;5009847;28;20552;-75
2022/07/09 04:58:29;;;;;;;9.43;4.30;;;17.30;82.40;;;;;;5021173;28;20556;-76
2022/07/09 05:00:56;;;;;;;10.13;5.68;;;17.50;82.50;;;;;;4995422;28;20468;-75
2022/07/09 05:03:21;;;;;;;8.45;5.45;;;17.60;82.20;;;;;;5008478;28;20036;-76
2022/07/09 05:05:47;;;;;;;6.90;5.25;;;18.10;82.30;;;;;;5025711;28;20032;-75
2022/07/09 05:08:12;;;;;;;9.13;4.78;;;18.10;81.90;;;;;;5021039;28;20122;-75
2022/07/09 05:10:38;;;;;;;5.65;4.80;;;18.40;82.40;;;;;;5019777;28;20036;-75
2022/07/09 05:13:04;;;;;;;10.48;4.63;;;18.70;82.90;;;;;;5008918;28;20040;-75
2022/07/09 05:15:32;;;;;;;7.85;4.70;;;18.80;83.70;;;;;;5022520;28;20102;-76
2022/07/09 05:17:57;;;;;;;7.47;5.22;;;19.10;84.50;;;;;;5009315;28;20444;-75
2022/07/09 05:20:24;;;;;;;9.13;4.30;;;19.40;84.90;;;;;;5021414;28;20057;-75
2022/07/09 05:22:49;;;;;;;4.90;4.30;;;19.80;85.30;;;;;;4995138;28;20082;-76
2022/07/09 05:25:15;;;;;;;6.43;3.95;;;20.00;85.30;;;;;;5024876;28;20548;-75
2022/07/09 05:27:42;;;;;;;6.93;3.17;;;20.40;85.60;;;;;;5009571;28;20061;-76
2022/07/09 05:30:09;;;;;;;7.15;4.07;;;20.60;85.30;;;;;;5023672;28;20131;-75
2022/07/09 05:32:34;;;;;;;6.07;4.05;;;21.00;85.70;;;;;;5007549;28;20033;-75
2022/07/09 05:35:00;;;;;;;5.35;3.33;;;21.30;85.60;;;;;;5006144;28;20401;-75
2022/07/09 05:37:26;;;;;;;4.97;3.72;;;21.30;83.90;;;;;;5021378;28;20390;-75
2022/07/09 05:39:51;;;;;;;5.25;3.72;;;21.40;84.50;;;;;;4996483;28;20102;-75
2022/07/09 05:42:17;;;;;;;6.25;3.60;;;21.50;84.10;;;;;;5005436;28;20116;-75
2022/07/09 05:44:42;;;;;;;9.45;4.20;;;21.40;84.20;;;;;;5038118;28;20040;-76
2022/07/09 05:47:08;;;;;;;7.25;3.45;;;21.90;84.10;;;;;;5020847;28;20026;-76
2022/07/09 05:49:33;;;;;;;7.18;3.30;;;22.10;84.00;;;;;;5021658;28;20021;-75
2022/07/09 05:51:59;;;;;;;4.97;3.20;;;22.30;83.50;;;;;;4993748;28;20491;-75
2022/07/09 05:54:24;;;;;;;6.72;3.55;;;22.40;82.00;;;;;;5005114;28;20034;-77
2022/07/09 05:56:51;;;;;;;8.70;3.08;;;22.50;82.10;;;;;;5022665;28;20028;-76
2022/07/09 05:59:16;;;;;;;11.70;4.28;;;22.60;80.80;;;;;;5006810;28;20743;-74
2022/07/09 06:01:42;;;;;;;11.13;5.35;;;22.70;81.20;;;;;;5021617;28;20116;-75
2022/07/09 06:04:08;;;;;;;13.52;6.20;;;22.80;81.30;;;;;;5000650;28;20030;-76
2022/07/09 06:06:34;;;;;;;10.73;4.47;;;23.00;81.60;;;;;;5003860;28;20383;-76
2022/07/09 06:08:59;;;;;;;8.15;5.28;;;23.20;81.20;;;;;;4990491;28;20063;-75
2022/07/09 06:11:25;;;;;;;11.05;4.07;;;23.50;81.10;;;;;;5018536;28;20034;-77
2022/07/09 06:13:51;;;;;;;13.50;6.18;;;23.70;78.70;;;;;;4993291;28;20132;-76
2022/07/09 06:16:16;;;;;;;14.05;5.88;;;23.70;80.30;;;;;;5016716;28;20030;-75
2022/07/09 06:18:42;;;;;;;11.18;5.85;;;24.10;79.60;;;;;;5003168;28;20663;-76
2022/07/09 06:21:07;;;;;;;8.82;5.25;;;24.40;77.20;;;;;;5006590;28;20036;-76
2022/07/09 06:23:33;;;;;;;17.67;6.95;;;24.70;74.50;;;;;;5009073;28;20041;-77
2022/07/09 06:25:59;;;;;;;11.88;5.72;;;24.90;74.00;;;;;;5023574;28;20040;-75
2022/07/09 06:28:24;;;;;;;12.15;4.90;;;25.20;73.30;;;;;;4989096;28;20116;-76
2022/07/09 06:30:50;;;;;;;13.70;6.85;;;25.60;72.70;;;;;;5007983;28;20235;-78
2022/07/09 06:33:16;;;;;;;10.27;5.05;;;25.90;71.60;;;;;;5009068;28;20607;-78
2022/07/09 06:35:41;;;;;;;17.67;6.30;;;26.20;70.00;;;;;;5009884;28;20043;-77
2022/07/09 06:38:07;;;;;;;15.75;7.65;;;26.30;70.20;;;;;;5012575;28;20551;-77
2022/07/09 06:40:34;;;;;;;20.60;7.30;;;26.50;69.10;;;;;;5008623;28;20211;-77
2022/07/09 06:42:59;;;;;;;11.02;4.80;;;26.50;68.00;;;;;;4998282;28;20336;-77
2022/07/09 06:45:25;;;;;;;16.88;8.30;;;26.50;67.00;;;;;;5007384;28;20148;-77
2022/07/09 06:47:52;;;;;;;18.83;8.35;;;26.80;66.30;;;;;;5008882;28;20053;-77
2022/07/09 06:50:19;;;;;;;14.98;7.43;;;27.00;65.60;;;;;;5022247;28;20064;-83
2022/07/09 06:52:44;;;;;;;13.85;5.55;;;27.00;66.00;;;;;;5013271;28;20979;-84
2022/07/09 06:55:10;;;;;;;12.70;6.78;;;27.20;65.00;;;;;;5011687;28;20045;-83
2022/07/09 06:57:36;;;;;;;13.88;6.07;;;27.40;64.00;;;;;;5011572;28;20120;-83
2022/07/09 07:00:03;;;;;;;17.75;7.07;;;27.50;64.80;;;;;;5011221;28;20404;-82
2022/07/09 07:02:29;;;;;;;11.57;5.22;;;27.60;64.00;;;;;;5028006;28;20047;-84
2022/07/09 07:04:54;;;;;;;16.90;7.43;;;27.60;61.80;;;;;;4997036;28;20033;-83
2022/07/09 07:07:20;;;;;;;13.10;7.10;;;27.70;63.40;;;;;;4997383;28;20029;-82
2022/07/09 07:09:46;;;;;;;19.23;8.50;;;27.50;62.30;;;;;;5008104;28;20040;-83
2022/07/09 07:12:11;;;;;;;20.77;8.57;;;27.70;63.80;;;;;;4995339;28;20040;-83
2022/07/09 07:14:37;;;;;;;16.20;7.07;;;28.10;63.10;;;;;;5025457;28;20067;-83
2022/07/09 07:17:03;;;;;;;13.80;6.65;;;28.20;62.00;;;;;;4994796;28;20033;-83
2022/07/09 07:19:29;;;;;;;14.30;6.82;;;28.30;62.50;;;;;;5022586;28;20037;-81
2022/07/09 07:21:54;;;;;;;13.15;6.22;;;28.50;61.80;;;;;;4997125;28;20118;-83
2022/07/09 07:24:20;;;;;;;15.68;6.97;;;28.70;60.90;;;;;;5020907;28;20619;-83
2022/07/09 07:26:46;;;;;;;16.17;7.20;;;29.10;60.50;;;;;;5009434;28;20122;-82
2022/07/09 07:29:11;;;;;;;12.75;6.78;;;29.20;59.80;;;;;;5009064;28;20060;-82
2022/07/09 07:31:37;;;;;;;12.23;6.18;;;29.30;59.70;;;;;;5022119;28;20132;-83
2022/07/09 07:34:02;;;;;;;11.98;5.57;;;29.50;58.30;;;;;;5010325;28;20052;-83
2022/07/09 07:36:28;;;;;;;8.00;4.65;;;29.60;58.30;;;;;;5024311;28;20045;-82
2022/07/09 07:38:53;;;;;;;13.77;4.65;;;29.90;61.40;;;;;;5006599;28;20032;-81
2022/07/09 07:41:20;;;;;;;10.05;4.43;;;30.00;57.50;;;;;;5020270;28;20104;-82
2022/07/09 07:43:46;;;;;;;7.47;3.08;;;30.20;57.00;;;;;;5008883;28;20071;-82
2022/07/09 07:46:11;;;;;;;6.85;3.45;;;30.20;56.00;;;;;;5006383;28;20127;-82
2022/07/09 07:48:37;;;;;;;8.77;3.78;;;30.10;56.40;;;;;;5007755;28;20038;-82
2022/07/09 07:51:03;;;;;;;9.30;4.32;;;30.20;56.60;;;;;;4993876;28;20550;-81
2022/07/09 07:53:32;;;;;;;10.13;4.30;;;30.50;55.70;;;;;;5008116;28;20393;-81
2022/07/09 07:56:02;;;;;;;10.23;4.05;;;30.60;55.50;;;;;;5009709;28;20032;-80
2022/07/09 07:58:27;;;;;;;9.70;4.28;;;30.60;54.40;;;;;;5010881;28;20124;-79
2022/07/09 08:00:53;;;;;;;8.20;3.58;;;30.60;54.70;;;;;;5020664;28;20053;-81
2022/07/09 08:03:19;;;;;;;12.55;4.22;;;30.70;54.90;;;;;;5020317;28;20373;-81
2022/07/09 08:05:44;;;;;;;9.77;3.83;;;30.80;54.20;;;;;;5018507;28;20029;-82
2022/07/09 08:08:10;;;;;;;10.77;4.50;;;30.90;54.00;;;;;;5016186;28;20054;-79
2022/07/09 08:10:35;;;;;;;10.60;4.32;;;31.10;54.60;;;;;;5010914;28;20040;-81
2022/07/09 08:13:01;;;;;;;11.93;3.92;;;31.20;54.10;;;;;;4994682;28;20025;-82
2022/07/09 08:15:27;;;;;;;9.73;3.75;;;31.50;53.40;;;;;;5012901;28;20132;-82
2022/07/09 08:17:53;;;;;;;6.93;3.88;;;31.50;53.20;;;;;;4990169;28;20083;-82
2022/07/09 08:20:19;;;;;;;6.75;3.15;;;31.80;52.00;;;;;;5019805;28;20029;-81
2022/07/09 08:22:45;;;;;;;5.85;3.33;;;31.70;52.10;;;;;;4991781;28;20039;-81
2022/07/09 08:25:13;;;;;;;6.18;3.13;;;31.70;52.10;;;;;;5019571;28;20060;-81
2022/07/09 08:27:39;;;;;;;5.63;2.35;;;31.80;51.60;;;;;;5007852;28;20128;-82
2022/07/09 08:30:05;;;;;;;4.97;2.30;;;31.80;51.40;;;;;;5019743;28;20116;-82
2022/07/09 08:32:32;;;;;;;10.68;1.95;;;31.10;52.00;;;;;;5025312;28;20021;-81
2022/07/09 08:34:58;;;;;;;5.05;2.70;;;31.50;51.40;;;;;;5020830;28;20489;-83
2022/07/09 08:37:23;;;;;;;6.10;2.15;;;31.60;51.50;;;;;;5008797;28;20044;-81
2022/07/09 08:39:49;;;;;;;5.47;2.25;;;31.70;51.90;;;;;;5008580;28;20033;-80
2022/07/09 08:42:14;;;;;;;3.80;1.98;;;31.80;51.00;;;;;;5008336;28;20505;-82
2022/07/09 08:44:43;;;;;;;4.18;2.30;;;31.90;51.30;;;;;;4987268;28;20433;-82
2022/07/09 08:47:11;;;;;;;5.68;1.77;;;32.10;50.80;;;;;;5004055;28;20534;-80
2022/07/09 08:49:37;;;;;;;5.32;1.98;;;32.20;50.10;;;;;;4991031;28;20057;-83
2022/07/09 08:52:03;;;;;;;5.43;1.92;;;32.30;50.30;;;;;;5007967;28;20080;-80
2022/07/09 08:54:29;;;;;;;4.53;2.28;;;32.00;50.90;;;;;;5007104;28;20062;-81
2022/07/09 09:40:31;;;;;;;8.30;3.38;;;33.50;48.50;;;;;;5059941;28;20498;-83
2022/07/09 09:42:58;;;;;;;3.47;2.50;;;33.70;48.90;;;;;;5029206;28;20060;-81
2022/07/09 09:45:24;;;;;;;6.80;2.60;;;33.90;47.80;;;;;;5028553;28;20040;-81
2022/07/09 09:47:50;;;;;;;9.90;2.60;;;34.20;47.30;;;;;;5030672;28;20209;-81
2022/07/09 09:50:23;;;;;;;4.43;2.35;;;34.20;46.60;;;;;;5030402;28;20056;-81
2022/07/09 09:52:51;;;;;;;5.32;2.47;;;34.00;46.50;;;;;;5029947;28;20025;-82
2022/07/09 09:55:17;;;;;;;5.38;2.05;;;33.60;46.70;;;;;;5043041;28;20136;-82
2022/07/09 09:57:43;;;;;;;8.63;2.45;;;33.50;47.60;;;;;;5028347;28;20538;-83
2022/07/09 10:00:10;;;;;;;3.70;2.17;;;33.40;47.80;;;;;;5045851;28;20327;-82
2022/07/09 10:02:36;;;;;;;2.72;1.50;;;33.40;47.00;;;;;;5059147;28;20029;-82
2022/07/09 10:05:02;;;;;;;4.97;2.28;;;33.40;47.10;;;;;;5045125;28;20032;-82
2022/07/09 10:07:27;;;;;;;3.75;1.67;;;33.80;46.50;;;;;;5030060;28;20049;-84
2022/07/09 10:09:54;;;;;;;2.70;1.70;;;33.70;47.00;;;;;;5027438;28;20025;-81
2022/07/09 10:12:35;;;;;;;2.33;1.52;;;33.70;47.30;;;;;;5028572;28;20491;-81
2022/07/09 10:15:01;;;;;;;2.20;1.40;;;33.50;47.60;;;;;;5046934;28;20098;-82
2022/07/09 10:17:27;;;;;;;3.28;1.50;;;33.40;47.40;;;;;;5032884;28;20063;-81
2022/07/09 10:19:54;;;;;;;1.30;1.20;;;33.70;46.90;;;;;;5033325;28;20459;-81
2022/07/09 10:22:21;;;;;;;5.95;1.30;;;33.90;46.50;;;;;;5046474;28;20447;-81
2022/07/09 10:24:50;;;;;;;1.42;0.90;;;33.80;47.10;;;;;;5048608;28;20139;-81
2022/07/09 10:27:16;;;;;;;2.22;1.30;;;33.80;47.00;;;;;;5048306;28;20060;-81
2022/07/09 10:29:58;;;;;;;1.48;0.80;;;33.80;46.70;;;;;;5028036;28;20427;-81
2022/07/09 10:32:26;;;;;;;1.52;0.77;;;34.20;46.20;;;;;;5048364;28;20040;-80
2022/07/09 10:35:05;;;;;;;1.75;0.98;;;34.30;46.50;;;;;;5032891;28;20032;-81
2022/07/09 10:37:41;;;;;;;2.58;1.00;;;34.50;46.30;;;;;;5046864;28;20033;-80
2022/07/09 10:40:14;;;;;;;2.55;1.00;;;34.40;46.40;;;;;;5020332;28;20044;-81
2022/07/09 10:42:41;;;;;;;1.92;0.98;;;34.20;46.50;;;;;;5046938;28;20386;-80
2022/07/09 10:45:38;;;;;;;3.35;0.95;;;34.70;45.90;;;;;;5030063;28;20040;-81
2022/07/09 10:48:04;;;;;;;2.85;1.02;;;34.90;45.70;;;;;;5032817;28;20075;-80
2022/07/09 10:50:31;;;;;;;1.88;0.88;;;35.10;44.80;;;;;;5057039;28;20070;-80
2022/07/09 10:52:57;;;;;;;3.92;1.20;;;35.00;45.40;;;;;;5054159;28;20033;-80
2022/07/09 10:55:26;;;;;;;2.90;0.90;;;34.90;45.40;;;;;;5060222;28;20390;-80
2022/07/09 10:57:51;;;;;;;1.08;0.75;;;34.90;45.50;;;;;;5012151;28;20029;-79
2022/07/09 11:00:25;;;;;;;1.25;1.10;;;34.80;45.20;;;;;;5058808;28;20503;-80
2022/07/09 11:02:57;;;;;;;0.60;0.60;;;35.00;45.90;;;;;;5050302;28;20105;-80
2022/07/09 11:05:24;;;;;;;3.22;0.70;;;35.10;45.70;;;;;;5057937;28;20041;-80
2022/07/09 11:07:59;;;;;;;1.58;0.90;;;34.80;44.80;;;;;;5055015;28;20530;-80
2022/07/09 11:10:26;;;;;;;;;;;34.90;45.10;;;;;;5063317;28;20099;-80
2022/07/09 11:12:52;;;;;;;0.82;0.70;;;34.70;45.30;;;;;;5033398;28;19912;-80
2022/07/09 11:15:21;;;;;;;2.17;0.88;;;34.90;44.60;;;;;;5018203;28;20476;-81
2022/07/09 11:18:03;;;;;;;1.00;0.70;;;34.80;44.80;;;;;;5029559;28;20491;-81
2022/07/09 11:20:30;;;;;;;1.55;0.50;;;34.80;44.60;;;;;;5061664;28;20124;-80
2022/07/09 11:22:56;;;;;;;0.98;0.75;;;34.90;44.40;;;;;;5064154;28;20075;-78
2022/07/09 11:25:25;;;;;;;0.77;0.70;;;34.90;44.30;;;;;;5041263;28;20441;-77
2022/07/09 11:27:51;;;;;;;1.77;0.90;;;35.10;43.90;;;;;;5045802;28;20488;-79
2022/07/09 11:30:18;;;;;;;1.42;0.88;;;34.90;44.80;;;;;;5061502;28;20056;-80
2022/07/09 11:32:44;;;;;;;0.70;0.70;;;34.70;44.40;;;;;;5058673;28;20464;-79
2022/07/09 11:35:10;;;;;;;1.58;0.90;;;34.80;44.90;;;;;;5042053;28;20057;-80
2022/07/09 11:37:36;;;;;;;0.85;0.73;;;34.30;45.90;;;;;;5015406;28;20032;-79
2022/07/09 11:40:02;;;;;;;1.25;0.70;;;34.50;45.30;;;;;;5044794;28;20457;-79
2022/07/09 11:42:27;;;;;;;2.25;0.95;;;34.50;45.30;;;;;;4702410;28;10000307;-79
2022/07/09 11:44:54;;;;;;;1.63;0.90;;;34.50;44.70;;;;;;4660366;28;10000521;-79
2022/07/09 11:47:22;;;;;;;1.15;0.80;;;34.20;44.90;;;;;;5031423;28;20773;-79
2022/07/09 11:49:50;;;;;;;0.77;0.65;;;34.20;44.50;;;;;;5010797;28;20116;-80
2022/07/09 11:52:20;;;;;;;1.00;0.90;;;34.10;44.80;;;;;;5039628;28;20040;-80
2022/07/09 11:55:06;;;;;;;0.85;0.68;;;34.00;44.30;;;;;;5042370;28;20403;-79
2022/07/09 11:57:33;;;;;;;;;;;33.80;44.80;;;;;;5044396;28;20452;-80
2022/07/09 11:59:58;;;;;;;1.10;1.00;;;33.50;45.40;;;;;;5042204;28;19944;-80
2022/07/09 12:02:32;;;;;;;1.08;0.98;;;33.40;45.40;;;;;;5043620;28;20063;-79
2022/07/09 12:04:59;;;;;;;1.02;0.98;;;33.40;45.30;;;;;;5019505;28;20550;-79
2022/07/09 12:07:24;;;;;;;0.60;0.60;;;33.30;45.00;;;;;;5057587;28;20040;-80
2022/07/09 12:10:09;;;;;;;5.03;1.10;;;33.10;46.00;;;;;;5042087;28;20377;-80
2022/07/09 12:12:35;;;;;;;3.38;1.52;;;32.60;45.80;;;;;;5040655;28;20438;-80
2022/07/09 12:15:02;;;;;;;2.85;1.75;;;32.30;46.00;;;;;;5010784;28;20947;-80
2022/07/09 12:17:29;;;;;;;2.67;1.55;;;32.10;46.20;;;;;;5055148;28;20503;-80
2022/07/09 12:19:55;;;;;;;2.45;1.58;;;31.80;47.50;;;;;;5014737;28;20108;-81
2022/07/09 12:22:23;;;;;;;2.15;1.55;;;31.20;50.40;;;;;;5031998;28;20096;-81
2022/07/09 12:24:48;;;;;;;2.20;1.65;;;30.70;50.80;;;;;;5043617;28;20036;-81
2022/07/09 12:27:14;;;;;;;2.42;1.95;;;30.10;52.50;;;;;;5039777;28;20116;-82
2022/07/09 12:29:40;;;;;;;5.57;2.50;;;29.50;56.30;;;;;;5012096;28;20067;-82
2022/07/09 12:32:05;;;;;;;5.15;2.50;;;28.90;59.60;;;;;;5044990;28;20033;-80
2022/07/09 12:34:31;;;;;;;6.57;3.33;;;28.30;57.90;;;;;;5043151;28;20029;-81
2022/07/09 12:36:57;;;;;;;5.80;4.38;;;27.80;63.20;;;;;;5043406;28;20024;-81
2022/07/09 12:39:23;;;;;;;7.10;4.22;;;27.10;65.00;;;;;;5043168;28;20334;-81
2022/07/09 12:41:48;;;;;;;10.90;5.97;;;26.60;66.40;;;;;;5037812;28;20074;-82
2022/07/09 12:44:14;;;;;;;6.68;5.80;;;26.00;71.00;;;;;;5032853;28;20087;-81
2022/07/09 12:46:40;;;;;;;11.07;4.47;;;25.70;72.70;;;;;;5055852;28;20561;-83
2022/07/09 12:49:05;;;;;;;8.30;6.93;;;25.10;70.10;;;;;;5012903;28;20059;-84
2022/07/09 12:51:31;;;;;;;6.70;4.60;;;24.90;72.30;;;;;;5043164;28;20041;-83
2022/07/09 12:53:57;;;;;;;9.43;5.45;;;24.70;71.10;;;;;;5047583;28;20035;-83
2022/07/09 12:56:22;;;;;;;7.72;5.55;;;24.50;71.30;;;;;;5013762;28;20043;-83
2022/07/09 12:58:48;;;;;;;10.20;6.95;;;24.10;76.20;;;;;;5037421;28;20484;-84
2022/07/09 13:01:13;;;;;;;12.75;8.20;;;23.70;78.30;;;;;;5029019;28;20072;-84
2022/07/09 13:03:41;;;;;;;10.75;7.43;;;23.10;82.00;;;;;;5044363;28;20081;-84
2022/07/09 13:08:51;;;;;;;8.65;7.65;;;22.60;79.00;;;;;;5060808;28;20055;-83
2022/07/09 13:11:17;;;;;;;8.00;7.20;;;22.60;77.80;;;;;;5048006;28;20044;-83
2022/07/09 13:13:42;;;;;;;7.93;7.13;;;22.40;79.60;;;;;;5039372;28;20029;-82
2022/07/09 13:16:08;;;;;;;8.18;7.35;;;22.10;83.70;;;;;;5050757;28;20100;-83
2022/07/09 13:18:33;;;;;;;10.50;7.57;;;22.00;82.00;;;;;;5063694;28;20025;-83
2022/07/09 13:20:59;;;;;;;9.25;8.35;;;21.80;84.80;;;;;;5037137;28;20033;-82
2022/07/09 13:23:24;;;;;;;11.35;8.45;;;21.70;86.40;;;;;;5055726;28;20025;-82
2022/07/09 13:25:50;;;;;;;9.93;7.00;;;21.70;84.70;;;;;;5027400;28;20029;-82
2022/07/09 13:28:16;;;;;;;8.52;6.60;;;21.60;86.50;;;;;;5027251;28;20024;-82